Airfield :
LOGIN :

Register | Disclaimer

   EN    FR    IT 

 










Legend :    VFR   Marginal VFR   IFR   Intensive IFR   Very Intensive IFR
Visi :
Ceiling :
>= 8 km
>= 3000ft
5 to 8 km
1000 to 3000 ft
1500m to 5 km
500 to 1000 ft
800 to 1500m
200 to 500 ft
< 800m
< 200 ft
Symbols :   Thunderstorms  Fog  Heavy snow  Heavy precipitations  Wind > 20 kt
SIGMETs :     Misc.  Thunderstorms  Icing  Turbulence  Mountain Waves  Volcanic Ashes







- Airport Elevation : 461 ft
- IATA code : WIE


ETOU - Wiesbaden Army

CURRENT METAR :
  • 160756Z AUTO 26003KT 9999 OVC100 17/13 A3015 RMK AO2 RAE17RAB34E46 SLP209 P0000 T01700129 $

EXPIRED METARs :
  • 160734Z AUTO 00000KT 9999 -RA BKN090 17/13 A3015 RMK AO2 RAE17RAB34 SLP208 $
  • 160717Z AUTO 27003KT 9999 BKN090 16/14 A3015 RMK AO2 RAE17 SLP209 $
  • 160656Z AUTO 25003KT 9999 -RA FEW065 BKN090 16/15 A3014 RMK AO2 RAB13 SLP205 P0001 T01630145 $
  • 160613Z AUTO 00000KT 9999 -RA SCT075 16/15 A3014 RMK AO2 RAB13 SLP205 $
  • 160556Z AUTO 00000KT 9999 OVC070 16/15 A3014 RMK AO2 RAE15DZB15E19RAB19E45DZB45E48 SLP204 P0000 60013 T01560146 10175 20151 $
  • 160548Z AUTO 00000KT 9999 BKN070 16/15 A3013 RMK AO2 RAE15DZB15E19RAB19E45DZB45E48 SLP201 $

TAF AMD TAF ETOU
Valid from the 16 at 08:00 until the 17 at 01:00 UTC


160829Z 1608/1701 VRB06KT 9999 BKN040QNH3009INS
BECMG 1611/1612 VRB06KT 9999 BKN060QNH3015INS TX25/1614Z TN14/1603Z LAST NO AMDS AFT 1519 NEXT 1703
No reported NOTAMs for that airfield.



MET'MAP, your aeronautical weather chart ! - Copyright ORBIFLY December 2007 - Disclaimer

ORBIFLY MET'MAP TEAM :

Programming & Development : Alexandra Zaïnal
Concept & Development : Baudouin d'Aumeries
Co-Development & Prog : Marc-Olivier Méhu
Technical & hardware support : Manuel Goepfert

Contact : metmap@orbifly.com




SOURCES & CREDITS :

   NOAA